sensor_id;sensor_type;location;lat;lon;timestamp;pressure;altitude;pressure_sealevel;temperature;humidity
50774;BME280;36745;48.544;8.918;2023-02-03T00:00:37;98650.34;;;4.74;99.84
50774;BME280;36745;48.544;8.918;2023-02-03T00:03:57;98659.81;;;4.80;99.96
50774;BME280;36745;48.544;8.918;2023-02-03T00:07:17;98659.06;;;4.83;99.72
50774;BME280;36745;48.544;8.918;2023-02-03T00:10:37;98661.44;;;4.84;99.84
50774;BME280;36745;48.544;8.918;2023-02-03T00:13:58;98657.91;;;4.84;99.93
50774;BME280;36745;48.544;8.918;2023-02-03T00:17:17;98664.94;;;4.85;100.00
50774;BME280;36745;48.544;8.918;2023-02-03T00:20:37;98665.78;;;4.89;100.00
50774;BME280;36745;48.544;8.918;2023-02-03T00:23:57;98662.22;;;4.85;100.00
50774;BME280;36745;48.544;8.918;2023-02-03T00:27:17;98663.69;;;4.79;100.00
50774;BME280;36745;48.544;8.918;2023-02-03T00:30:37;98666.75;;;4.74;100.00
50774;BME280;36745;48.544;8.918;2023-02-03T00:33:57;98673.25;;;4.65;100.00
50774;BME280;36745;48.544;8.918;2023-02-03T00:37:16;98663.63;;;4.75;100.00
50774;BME280;36745;48.544;8.918;2023-02-03T00:40:36;98672.28;;;4.81;100.00
50774;BME280;36745;48.544;8.918;2023-02-03T00:43:56;98654.34;;;4.80;100.00
50774;BME280;36745;48.544;8.918;2023-02-03T00:47:16;98657.16;;;4.87;100.00
50774;BME280;36745;48.544;8.918;2023-02-03T00:50:35;98648.16;;;4.86;100.00
50774;BME280;36745;48.544;8.918;2023-02-03T00:53:55;98643.59;;;4.94;100.00
50774;BME280;36745;48.544;8.918;2023-02-03T00:57:15;98646.28;;;4.90;100.00
50774;BME280;36745;48.544;8.918;2023-02-03T01:00:35;98649.28;;;4.82;100.00
50774;BME280;36745;48.544;8.918;2023-02-03T01:03:55;98659.34;;;4.74;100.00
50774;BME280;36745;48.544;8.918;2023-02-03T01:07:15;98660.53;;;4.77;100.00
50774;BME280;36745;48.544;8.918;2023-02-03T01:10:37;98673.81;;;4.78;100.00
50774;BME280;36745;48.544;8.918;2023-02-03T01:13:57;98666.81;;;4.81;100.00
50774;BME280;36745;48.544;8.918;2023-02-03T01:17:19;98666.81;;;4.81;100.00
50774;BME280;36745;48.544;8.918;2023-02-03T01:20:39;98662.94;;;4.82;100.00
50774;BME280;36745;48.544;8.918;2023-02-03T01:23:59;98660.47;;;4.73;100.00
50774;BME280;36745;48.544;8.918;2023-02-03T01:27:19;98664.00;;;4.74;100.00
50774;BME280;36745;48.544;8.918;2023-02-03T01:30:39;98654.03;;;4.85;100.00
50774;BME280;36745;48.544;8.918;2023-02-03T01:33:59;98636.47;;;4.86;100.00
50774;BME280;36745;48.544;8.918;2023-02-03T01:37:20;98620.31;;;4.74;100.00
50774;BME280;36745;48.544;8.918;2023-02-03T01:40:43;98626.94;;;4.76;100.00
50774;BME280;36745;48.544;8.918;2023-02-03T01:44:42;98630.81;;;4.72;100.00
50774;BME280;36745;48.544;8.918;2023-02-03T01:48:03;98642.41;;;4.65;100.00
50774;BME280;36745;48.544;8.918;2023-02-03T01:51:23;98630.94;;;4.82;100.00
50774;BME280;36745;48.544;8.918;2023-02-03T01:54:44;98608.28;;;4.82;100.00
50774;BME280;36745;48.544;8.918;2023-02-03T01:58:11;98593.81;;;4.78;100.00
50774;BME280;36745;48.544;8.918;2023-02-03T02:01:33;98593.53;;;4.86;100.00
50774;BME280;36745;48.544;8.918;2023-02-03T02:08:22;98615.50;;;4.97;100.00
50774;BME280;36745;48.544;8.918;2023-02-03T02:11:43;98624.50;;;4.97;100.00
50774;BME280;36745;48.544;8.918;2023-02-03T02:15:02;98629.59;;;4.99;100.00
50774;BME280;36745;48.544;8.918;2023-02-03T02:23:14;98597.25;;;5.04;100.00
50774;BME280;36745;48.544;8.918;2023-02-03T02:26:48;98596.72;;;4.92;100.00
50774;BME280;36745;48.544;8.918;2023-02-03T02:34:12;98550.53;;;4.80;100.00
50774;BME280;36745;48.544;8.918;2023-02-03T02:37:49;98543.38;;;4.72;100.00
50774;BME280;36745;48.544;8.918;2023-02-03T02:45:07;98559.56;;;4.84;100.00
50774;BME280;36745;48.544;8.918;2023-02-03T02:48:35;98552.88;;;4.81;100.00
50774;BME280;36745;48.544;8.918;2023-02-03T02:52:00;98538.06;;;4.82;100.00
50774;BME280;36745;48.544;8.918;2023-02-03T02:55:24;98547.78;;;4.80;100.00
50774;BME280;36745;48.544;8.918;2023-02-03T02:58:48;98550.94;;;4.82;100.00
50774;BME280;36745;48.544;8.918;2023-02-03T03:02:10;98537.59;;;4.77;100.00
50774;BME280;36745;48.544;8.918;2023-02-03T03:05:30;98524.72;;;4.77;100.00
50774;BME280;36745;48.544;8.918;2023-02-03T03:09:11;98533.69;;;4.74;100.00
50774;BME280;36745;48.544;8.918;2023-02-03T03:12:35;98545.72;;;4.70;100.00
50774;BME280;36745;48.544;8.918;2023-02-03T03:15:57;98564.44;;;4.71;100.00
50774;BME280;36745;48.544;8.918;2023-02-03T03:19:23;98563.66;;;4.71;100.00
50774;BME280;36745;48.544;8.918;2023-02-03T03:22:55;98546.22;;;4.79;100.00
50774;BME280;36745;48.544;8.918;2023-02-03T03:26:35;98543.59;;;4.86;100.00
50774;BME280;36745;48.544;8.918;2023-02-03T03:30:00;98538.94;;;4.90;100.00
50774;BME280;36745;48.544;8.918;2023-02-03T03:33:21;98533.38;;;4.83;100.00
50774;BME280;36745;48.544;8.918;2023-02-03T03:37:08;98525.53;;;4.78;100.00
50774;BME280;36745;48.544;8.918;2023-02-03T03:40:36;98540.41;;;4.84;100.00
50774;BME280;36745;48.544;8.918;2023-02-03T03:44:01;98530.09;;;4.70;100.00
50774;BME280;36745;48.544;8.918;2023-02-03T03:51:01;98558.53;;;4.65;100.00
50774;BME280;36745;48.544;8.918;2023-02-03T03:54:23;98566.00;;;4.69;100.00
50774;BME280;36745;48.544;8.918;2023-02-03T03:57:51;98584.78;;;4.74;100.00
50774;BME280;36745;48.544;8.918;2023-02-03T04:01:14;98583.22;;;4.73;100.00
50774;BME280;36745;48.544;8.918;2023-02-03T04:04:36;98602.00;;;4.78;100.00
50774;BME280;36745;48.544;8.918;2023-02-03T04:07:58;98578.56;;;4.77;100.00
50774;BME280;36745;48.544;8.918;2023-02-03T04:11:17;98597.34;;;4.78;100.00
50774;BME280;36745;48.544;8.918;2023-02-03T04:14:56;98600.53;;;4.84;100.00
50774;BME280;36745;48.544;8.918;2023-02-03T04:18:16;98604.84;;;4.85;100.00
50774;BME280;36745;48.544;8.918;2023-02-03T04:21:35;98607.19;;;4.86;100.00
50774;BME280;36745;48.544;8.918;2023-02-03T04:24:55;98608.53;;;4.99;100.00
50774;BME280;36745;48.544;8.918;2023-02-03T04:28:17;98611.22;;;4.96;100.00
50774;BME280;36745;48.544;8.918;2023-02-03T04:31:37;98609.16;;;4.86;100.00
50774;BME280;36745;48.544;8.918;2023-02-03T04:34:57;98607.56;;;4.85;100.00
50774;BME280;36745;48.544;8.918;2023-02-03T04:38:17;98610.56;;;4.76;100.00
50774;BME280;36745;48.544;8.918;2023-02-03T04:41:37;98606.56;;;4.70;100.00
50774;BME280;36745;48.544;8.918;2023-02-03T04:44:56;98605.50;;;4.75;100.00
50774;BME280;36745;48.544;8.918;2023-02-03T04:48:17;98590.25;;;4.74;100.00
50774;BME280;36745;48.544;8.918;2023-02-03T04:51:37;98587.88;;;4.72;100.00
50774;BME280;36745;48.544;8.918;2023-02-03T04:54:57;98587.41;;;4.67;100.00
50774;BME280;36745;48.544;8.918;2023-02-03T04:58:17;98585.63;;;4.78;100.00
50774;BME280;36745;48.544;8.918;2023-02-03T05:01:37;98573.03;;;4.70;100.00
50774;BME280;36745;48.544;8.918;2023-02-03T05:04:56;98569.22;;;4.78;100.00
50774;BME280;36745;48.544;8.918;2023-02-03T05:08:16;98550.34;;;4.65;100.00
50774;BME280;36745;48.544;8.918;2023-02-03T05:11:36;98558.13;;;4.63;100.00
50774;BME280;36745;48.544;8.918;2023-02-03T05:14:56;98568.31;;;4.67;100.00
50774;BME280;36745;48.544;8.918;2023-02-03T05:18:16;98577.25;;;4.63;100.00
50774;BME280;36745;48.544;8.918;2023-02-03T05:21:36;98576.94;;;4.69;100.00
50774;BME280;36745;48.544;8.918;2023-02-03T05:24:56;98570.34;;;4.73;100.00
50774;BME280;36745;48.544;8.918;2023-02-03T05:28:16;98583.97;;;4.70;100.00
50774;BME280;36745;48.544;8.918;2023-02-03T05:31:35;98570.56;;;4.61;100.00
50774;BME280;36745;48.544;8.918;2023-02-03T05:34:55;98580.47;;;4.73;100.00
50774;BME280;36745;48.544;8.918;2023-02-03T05:38:15;98582.56;;;4.83;100.00
50774;BME280;36745;48.544;8.918;2023-02-03T05:41:35;98592.00;;;4.89;100.00
50774;BME280;36745;48.544;8.918;2023-02-03T05:45:12;98603.72;;;4.89;100.00
50774;BME280;36745;48.544;8.918;2023-02-03T05:48:33;98613.09;;;4.92;100.00
50774;BME280;36745;48.544;8.918;2023-02-03T05:51:54;98613.09;;;4.92;100.00
50774;BME280;36745;48.544;8.918;2023-02-03T05:55:14;98616.16;;;4.87;100.00
50774;BME280;36745;48.544;8.918;2023-02-03T05:58:34;98597.56;;;4.96;100.00
50774;BME280;36745;48.544;8.918;2023-02-03T06:01:54;98600.94;;;4.86;99.44
50774;BME280;36745;48.544;8.918;2023-02-03T06:05:14;98589.69;;;4.91;99.33
50774;BME280;36745;48.544;8.918;2023-02-03T06:08:33;98593.47;;;4.83;98.71
50774;BME280;36745;48.544;8.918;2023-02-03T06:11:53;98581.72;;;4.79;98.92
50774;BME280;36745;48.544;8.918;2023-02-03T06:15:13;98587.13;;;4.75;99.49
50774;BME280;36745;48.544;8.918;2023-02-03T06:18:34;98595.44;;;4.82;99.66
50774;BME280;36745;48.544;8.918;2023-02-03T06:21:53;98602.03;;;4.81;99.66
50774;BME280;36745;48.544;8.918;2023-02-03T06:25:13;98598.94;;;4.83;98.79
50774;BME280;36745;48.544;8.918;2023-02-03T06:28:33;98584.81;;;4.77;98.32
50774;BME280;36745;48.544;8.918;2023-02-03T06:31:53;98570.72;;;4.72;98.50
50774;BME280;36745;48.544;8.918;2023-02-03T06:35:13;98574.13;;;4.65;98.54
50774;BME280;36745;48.544;8.918;2023-02-03T06:38:32;98570.72;;;4.72;98.14
50774;BME280;36745;48.544;8.918;2023-02-03T06:41:52;98552.66;;;4.63;98.28
50774;BME280;36745;48.544;8.918;2023-02-03T06:45:14;98555.81;;;4.65;98.57
50774;BME280;36745;48.544;8.918;2023-02-03T06:48:33;98558.84;;;4.60;98.34
50774;BME280;36745;48.544;8.918;2023-02-03T06:51:54;98569.41;;;4.62;98.88
50774;BME280;36745;48.544;8.918;2023-02-03T06:55:18;98581.50;;;4.61;98.80
50774;BME280;36745;48.544;8.918;2023-02-03T06:58:41;98576.84;;;4.65;99.28
50774;BME280;36745;48.544;8.918;2023-02-03T07:02:01;98572.94;;;4.62;99.11
50774;BME280;36745;48.544;8.918;2023-02-03T07:05:22;98557.19;;;4.52;99.19
50774;BME280;36745;48.544;8.918;2023-02-03T07:08:46;98544.38;;;4.56;99.38
50774;BME280;36745;48.544;8.918;2023-02-03T07:12:07;98559.97;;;4.56;99.80
50774;BME280;36745;48.544;8.918;2023-02-03T07:15:27;98568.97;;;4.56;99.81
50774;BME280;36745;48.544;8.918;2023-02-03T07:18:47;98561.19;;;4.58;99.95
50774;BME280;36745;48.544;8.918;2023-02-03T07:22:09;98553.34;;;4.57;100.00
50774;BME280;36745;48.544;8.918;2023-02-03T07:25:29;98554.66;;;4.67;100.00
50774;BME280;36745;48.544;8.918;2023-02-03T07:28:49;98546.50;;;4.70;100.00
50774;BME280;36745;48.544;8.918;2023-02-03T07:32:11;98561.13;;;4.85;100.00
50774;BME280;36745;48.544;8.918;2023-02-03T07:35:30;98557.66;;;4.91;99.57
50774;BME280;36745;48.544;8.918;2023-02-03T07:38:50;98557.50;;;4.77;99.02
50774;BME280;36745;48.544;8.918;2023-02-03T07:42:10;98552.94;;;4.85;99.65
50774;BME280;36745;48.544;8.918;2023-02-03T07:45:30;98543.88;;;4.81;99.51
50774;BME280;36745;48.544;8.918;2023-02-03T07:48:49;98541.16;;;4.81;100.00
50774;BME280;36745;48.544;8.918;2023-02-03T07:52:09;98556.13;;;4.90;100.00
50774;BME280;36745;48.544;8.918;2023-02-03T07:55:29;98556.25;;;5.01;100.00
50774;BME280;36745;48.544;8.918;2023-02-03T07:58:51;98560.94;;;5.04;100.00
50774;BME280;36745;48.544;8.918;2023-02-03T08:02:11;98578.94;;;5.05;99.80
50774;BME280;36745;48.544;8.918;2023-02-03T08:05:31;98583.56;;;5.01;99.66
50774;BME280;36745;48.544;8.918;2023-02-03T08:08:51;98590.56;;;4.98;99.55
50774;BME280;36745;48.544;8.918;2023-02-03T08:12:12;98596.06;;;5.02;100.00
50774;BME280;36745;48.544;8.918;2023-02-03T08:15:32;98607.75;;;4.99;100.00
50774;BME280;36745;48.544;8.918;2023-02-03T08:18:52;98620.50;;;5.21;100.00
50774;BME280;36745;48.544;8.918;2023-02-03T08:22:12;98629.94;;;5.27;100.00
50774;BME280;36745;48.544;8.918;2023-02-03T08:25:34;98626.78;;;5.25;100.00
50774;BME280;36745;48.544;8.918;2023-02-03T08:28:54;98613.63;;;5.34;100.00
50774;BME280;36745;48.544;8.918;2023-02-03T08:32:19;98603.50;;;5.38;100.00
50774;BME280;36745;48.544;8.918;2023-02-03T08:35:39;98591.09;;;5.44;100.00
50774;BME280;36745;48.544;8.918;2023-02-03T08:38:59;98616.84;;;5.43;100.00
50774;BME280;36745;48.544;8.918;2023-02-03T08:42:19;98630.16;;;5.45;100.00
50774;BME280;36745;48.544;8.918;2023-02-03T08:45:39;98618.91;;;5.54;100.00
50774;BME280;36745;48.544;8.918;2023-02-03T08:48:59;98633.06;;;5.63;100.00
50774;BME280;36745;48.544;8.918;2023-02-03T08:52:24;98628.47;;;5.70;100.00
50774;BME280;36745;48.544;8.918;2023-02-03T08:55:43;98631.97;;;5.71;99.86
50774;BME280;36745;48.544;8.918;2023-02-03T08:59:03;98654.94;;;5.63;100.00
50774;BME280;36745;48.544;8.918;2023-02-03T09:02:23;98646.81;;;5.70;100.00
50774;BME280;36745;48.544;8.918;2023-02-03T09:05:43;98644.56;;;5.79;100.00
50774;BME280;36745;48.544;8.918;2023-02-03T09:09:03;98634.53;;;5.90;100.00
50774;BME280;36745;48.544;8.918;2023-02-03T09:12:23;98617.25;;;5.86;100.00
50774;BME280;36745;48.544;8.918;2023-02-03T09:15:46;98638.34;;;5.82;99.96
50774;BME280;36745;48.544;8.918;2023-02-03T09:19:06;98631.28;;;5.81;99.34
50774;BME280;36745;48.544;8.918;2023-02-03T09:22:26;98625.00;;;5.77;99.46
50774;BME280;36745;48.544;8.918;2023-02-03T09:25:46;98610.25;;;5.88;99.67
50774;BME280;36745;48.544;8.918;2023-02-03T09:29:06;98613.50;;;6.01;99.28
50774;BME280;36745;48.544;8.918;2023-02-03T09:32:26;98593.53;;;5.97;98.87
50774;BME280;36745;48.544;8.918;2023-02-03T09:35:53;98610.56;;;5.80;98.08
50774;BME280;36745;48.544;8.918;2023-02-03T09:39:13;98603.94;;;5.84;98.69
50774;BME280;36745;48.544;8.918;2023-02-03T09:46:26;98624.53;;;6.08;98.43
50774;BME280;36745;48.544;8.918;2023-02-03T09:49:52;98623.88;;;6.25;98.80
50774;BME280;36745;48.544;8.918;2023-02-03T09:53:26;98610.66;;;6.35;97.96
50774;BME280;36745;48.544;8.918;2023-02-03T09:56:48;98609.88;;;6.38;97.99
50774;BME280;36745;48.544;8.918;2023-02-03T10:04:04;98627.50;;;6.37;97.19
50774;BME280;36745;48.544;8.918;2023-02-03T10:07:42;98625.44;;;6.26;96.61
50774;BME280;36745;48.544;8.918;2023-02-03T10:18:44;98616.13;;;6.35;96.69
50774;BME280;36745;48.544;8.918;2023-02-03T10:22:04;98603.69;;;6.48;96.76
50774;BME280;36745;48.544;8.918;2023-02-03T10:25:48;98609.25;;;6.62;96.62
50774;BME280;36745;48.544;8.918;2023-02-03T10:29:19;98599.09;;;6.66;96.15
50774;BME280;36745;48.544;8.918;2023-02-03T10:32:39;98586.59;;;6.72;95.74
50774;BME280;36745;48.544;8.918;2023-02-03T10:36:04;98605.84;;;6.79;95.16
50774;BME280;36745;48.544;8.918;2023-02-03T10:39:31;98611.25;;;6.68;94.34
50774;BME280;36745;48.544;8.918;2023-02-03T10:42:54;98614.75;;;6.62;93.95
50774;BME280;36745;48.544;8.918;2023-02-03T10:46:34;98603.84;;;6.76;95.14
50774;BME280;36745;48.544;8.918;2023-02-03T10:49:56;98605.47;;;6.84;94.54
50774;BME280;36745;48.544;8.918;2023-02-03T10:56:38;98629.81;;;6.96;93.94
50774;BME280;36745;48.544;8.918;2023-02-03T11:00:29;98618.81;;;6.89;93.43
50774;BME280;36745;48.544;8.918;2023-02-03T11:04:00;98596.50;;;6.91;93.43
50774;BME280;36745;48.544;8.918;2023-02-03T11:07:24;98568.59;;;6.71;92.23
50774;BME280;36745;48.544;8.918;2023-02-03T11:10:44;98566.25;;;6.73;93.23
50774;BME280;36745;48.544;8.918;2023-02-03T11:17:26;98553.09;;;7.10;92.96
50774;BME280;36745;48.544;8.918;2023-02-03T11:20:48;98539.81;;;7.27;92.68
50774;BME280;36745;48.544;8.918;2023-02-03T11:24:20;98538.25;;;7.26;92.05
50774;BME280;36745;48.544;8.918;2023-02-03T11:27:42;98548.41;;;7.14;91.44
50774;BME280;36745;48.544;8.918;2023-02-03T11:31:01;98555.81;;;7.00;92.04
50774;BME280;36745;48.544;8.918;2023-02-03T11:34:36;98529.56;;;6.95;91.75
50774;BME280;36745;48.544;8.918;2023-02-03T11:38:00;98529.56;;;6.95;91.52
50774;BME280;36745;48.544;8.918;2023-02-03T11:41:20;98533.06;;;6.96;91.34
50774;BME280;36745;48.544;8.918;2023-02-03T11:44:40;98522.47;;;6.87;90.83
50774;BME280;36745;48.544;8.918;2023-02-03T11:55:15;98535.66;;;6.60;91.75
50774;BME280;36745;48.544;8.918;2023-02-03T12:09:57;98546.72;;;6.78;90.39
50774;BME280;36745;48.544;8.918;2023-02-03T12:13:42;98528.66;;;6.70;90.84
50774;BME280;36745;48.544;8.918;2023-02-03T12:21:05;98524.00;;;6.78;90.67
50774;BME280;36745;48.544;8.918;2023-02-03T12:28:34;98520.03;;;6.68;90.70
50774;BME280;36745;48.544;8.918;2023-02-03T12:35:40;98502.91;;;6.85;91.22
50774;BME280;36745;48.544;8.918;2023-02-03T12:43:43;98525.66;;;6.96;90.87
50774;BME280;36745;48.544;8.918;2023-02-03T12:46:48;98540.13;;;7.00;90.72
50774;BME280;36745;48.544;8.918;2023-02-03T12:53:50;98505.69;;;7.06;90.83
50774;BME280;36745;48.544;8.918;2023-02-03T12:57:21;98499.00;;;7.07;90.42
50774;BME280;36745;48.544;8.918;2023-02-03T13:00:50;98492.78;;;7.07;90.19
50774;BME280;36745;48.544;8.918;2023-02-03T13:07:47;98482.56;;;7.00;89.26
50774;BME280;36745;48.544;8.918;2023-02-03T13:11:26;98455.91;;;6.83;89.32
50774;BME280;36745;48.544;8.918;2023-02-03T13:14:58;98465.25;;;6.71;89.78
50774;BME280;36745;48.544;8.918;2023-02-03T13:18:32;98458.59;;;6.69;89.36
50774;BME280;36745;48.544;8.918;2023-02-03T13:21:53;98448.03;;;6.64;89.16
50774;BME280;36745;48.544;8.918;2023-02-03T13:28:49;98436.28;;;6.67;88.99
50774;BME280;36745;48.544;8.918;2023-02-03T13:32:31;98445.28;;;6.71;89.32
50774;BME280;36745;48.544;8.918;2023-02-03T13:42:57;98444.88;;;6.62;88.47
50774;BME280;36745;48.544;8.918;2023-02-03T13:46:22;98445.63;;;6.59;89.07
50774;BME280;36745;48.544;8.918;2023-02-03T13:49:44;98448.03;;;6.71;88.32
50774;BME280;36745;48.544;8.918;2023-02-03T13:53:20;98454.66;;;6.66;88.29
50774;BME280;36745;48.544;8.918;2023-02-03T13:56:41;98456.25;;;6.67;88.27
50774;BME280;36745;48.544;8.918;2023-02-03T14:04:03;98450.78;;;6.78;88.46
50774;BME280;36745;48.544;8.918;2023-02-03T14:07:37;98437.88;;;6.82;88.78
50774;BME280;36745;48.544;8.918;2023-02-03T14:15:00;98470.00;;;6.85;88.06
50774;BME280;36745;48.544;8.918;2023-02-03T14:18:32;98480.94;;;6.78;88.33
50774;BME280;36745;48.544;8.918;2023-02-03T14:22:03;98468.84;;;6.93;88.83
50774;BME280;36745;48.544;8.918;2023-02-03T14:25:25;98486.06;;;6.94;88.38
50774;BME280;36745;48.544;8.918;2023-02-03T14:28:45;98489.19;;;6.85;87.90
50774;BME280;36745;48.544;8.918;2023-02-03T14:32:11;98482.50;;;6.86;88.61
50774;BME280;36745;48.544;8.918;2023-02-03T14:35:37;98493.88;;;6.85;88.56
50774;BME280;36745;48.544;8.918;2023-02-03T14:39:01;98489.91;;;6.75;88.06
50774;BME280;36745;48.544;8.918;2023-02-03T14:42:34;98495.75;;;6.66;87.97
50774;BME280;36745;48.544;8.918;2023-02-03T14:46:20;98485.59;;;6.67;88.22
50774;BME280;36745;48.544;8.918;2023-02-03T14:56:47;98505.19;;;6.76;88.89
50774;BME280;36745;48.544;8.918;2023-02-03T15:00:32;98494.19;;;6.62;88.64
50774;BME280;36745;48.544;8.918;2023-02-03T15:07:35;98495.81;;;6.73;89.08
50774;BME280;36745;48.544;8.918;2023-02-03T15:10:56;98493.44;;;6.72;89.13
50774;BME280;36745;48.544;8.918;2023-02-03T15:17:42;98494.22;;;6.76;89.26
50774;BME280;36745;48.544;8.918;2023-02-03T15:21:03;98507.19;;;6.86;89.32
50774;BME280;36745;48.544;8.918;2023-02-03T15:24:23;98505.22;;;6.80;88.88
50774;BME280;36745;48.544;8.918;2023-02-03T15:27:44;98509.09;;;6.75;89.45
50774;BME280;36745;48.544;8.918;2023-02-03T15:31:13;98504.41;;;6.68;90.18
50774;BME280;36745;48.544;8.918;2023-02-03T15:34:47;98500.47;;;6.66;90.47
50774;BME280;36745;48.544;8.918;2023-02-03T15:38:19;98494.19;;;6.65;90.22
50774;BME280;36745;48.544;8.918;2023-02-03T15:41:42;98479.31;;;6.63;90.79
50774;BME280;36745;48.544;8.918;2023-02-03T15:45:17;98482.44;;;6.65;90.66
50774;BME280;36745;48.544;8.918;2023-02-03T15:48:56;98476.53;;;6.56;90.52
50774;BME280;36745;48.544;8.918;2023-02-03T15:52:20;98474.59;;;6.56;90.37
50774;BME280;36745;48.544;8.918;2023-02-03T15:55:42;98479.66;;;6.51;91.01
50774;BME280;36745;48.544;8.918;2023-02-03T15:59:05;98495.69;;;6.49;91.23
50774;BME280;36745;48.544;8.918;2023-02-03T16:02:43;98500.38;;;6.45;91.56
50774;BME280;36745;48.544;8.918;2023-02-03T16:06:17;98505.78;;;6.30;91.96
50774;BME280;36745;48.544;8.918;2023-02-03T16:09:39;98521.41;;;6.30;92.20
50774;BME280;36745;48.544;8.918;2023-02-03T16:13:20;98514.38;;;6.32;92.01
50774;BME280;36745;48.544;8.918;2023-02-03T16:16:47;98510.53;;;6.44;91.98
50774;BME280;36745;48.544;8.918;2023-02-03T16:23:30;98520.69;;;6.44;91.96
50774;BME280;36745;48.544;8.918;2023-02-03T16:26:50;98521.94;;;6.57;91.88
50774;BME280;36745;48.544;8.918;2023-02-03T16:33:49;98516.00;;;6.41;91.92
50774;BME280;36745;48.544;8.918;2023-02-03T16:37:42;98517.16;;;6.40;92.06
50774;BME280;36745;48.544;8.918;2023-02-03T16:41:20;98508.94;;;6.40;92.04
50774;BME280;36745;48.544;8.918;2023-02-03T16:44:59;98512.47;;;6.37;92.57
50774;BME280;36745;48.544;8.918;2023-02-03T16:48:38;98510.13;;;6.39;92.51
50774;BME280;36745;48.544;8.918;2023-02-03T16:52:16;98511.31;;;6.45;92.38
50774;BME280;36745;48.544;8.918;2023-02-03T16:55:35;98501.53;;;6.44;92.64
50774;BME280;36745;48.544;8.918;2023-02-03T16:58:55;98506.63;;;6.49;92.63
50774;BME280;36745;48.544;8.918;2023-02-03T17:02:15;98494.16;;;6.55;92.72
50774;BME280;36745;48.544;8.918;2023-02-03T17:05:39;98494.91;;;6.48;92.87
50774;BME280;36745;48.544;8.918;2023-02-03T17:08:59;98501.19;;;6.56;92.67
50774;BME280;36745;48.544;8.918;2023-02-03T17:12:19;98508.97;;;6.43;92.91
50774;BME280;36745;48.544;8.918;2023-02-03T17:15:44;98508.22;;;6.50;92.95
50774;BME280;36745;48.544;8.918;2023-02-03T17:19:04;98513.69;;;6.50;92.64
50774;BME280;36745;48.544;8.918;2023-02-03T17:22:27;98519.97;;;6.54;92.75
50774;BME280;36745;48.544;8.918;2023-02-03T17:25:48;98512.13;;;6.49;92.80
50774;BME280;36745;48.544;8.918;2023-02-03T17:29:09;98515.69;;;6.56;92.66
50774;BME280;36745;48.544;8.918;2023-02-03T17:32:28;98525.50;;;6.61;92.31
50774;BME280;36745;48.544;8.918;2023-02-03T17:35:58;98535.28;;;6.58;92.30
50774;BME280;36745;48.544;8.918;2023-02-03T17:39:19;98541.91;;;6.57;92.14
50774;BME280;36745;48.544;8.918;2023-02-03T17:42:38;98548.50;;;6.46;92.50
50774;BME280;36745;48.544;8.918;2023-02-03T17:45:58;98546.88;;;6.38;92.73
50774;BME280;36745;48.544;8.918;2023-02-03T17:49:18;98541.81;;;6.43;92.95
50774;BME280;36745;48.544;8.918;2023-02-03T17:52:38;98529.75;;;6.48;92.79
50774;BME280;36745;48.544;8.918;2023-02-03T17:56:05;98522.28;;;6.41;92.88
50774;BME280;36745;48.544;8.918;2023-02-03T17:59:25;98526.22;;;6.51;92.82
50774;BME280;36745;48.544;8.918;2023-02-03T18:02:51;98543.09;;;6.56;92.51
50774;BME280;36745;48.544;8.918;2023-02-03T18:06:12;98543.44;;;6.48;92.75
50774;BME280;36745;48.544;8.918;2023-02-03T18:09:32;98548.91;;;6.48;93.11
50774;BME280;36745;48.544;8.918;2023-02-03T18:12:52;98545.00;;;6.49;93.28
50774;BME280;36745;48.544;8.918;2023-02-03T18:16:15;98552.03;;;6.50;93.60
50774;BME280;36745;48.544;8.918;2023-02-03T18:19:35;98557.53;;;6.50;93.62
50774;BME280;36745;48.544;8.918;2023-02-03T18:22:54;98563.38;;;6.48;93.87
50774;BME280;36745;48.544;8.918;2023-02-03T18:26:15;98569.22;;;6.40;94.07
50774;BME280;36745;48.544;8.918;2023-02-03T18:29:35;98566.06;;;6.38;94.13
50774;BME280;36745;48.544;8.918;2023-02-03T18:32:55;98562.88;;;6.28;95.06
50774;BME280;36745;48.544;8.918;2023-02-03T18:36:15;98569.94;;;6.29;94.86
50774;BME280;36745;48.544;8.918;2023-02-03T18:39:35;98578.50;;;6.24;95.32
50774;BME280;36745;48.544;8.918;2023-02-03T18:42:54;98578.09;;;6.22;95.80
50774;BME280;36745;48.544;8.918;2023-02-03T18:46:25;98582.03;;;6.28;96.08
50774;BME280;36745;48.544;8.918;2023-02-03T18:49:45;98595.72;;;6.28;96.43
50774;BME280;36745;48.544;8.918;2023-02-03T18:53:06;98588.66;;;6.20;96.95
50774;BME280;36745;48.544;8.918;2023-02-03T18:56:27;98587.06;;;6.19;97.55
50774;BME280;36745;48.544;8.918;2023-02-03T18:59:53;98588.31;;;6.32;97.17
50774;BME280;36745;48.544;8.918;2023-02-03T19:03:13;98585.56;;;6.25;97.55
50774;BME280;36745;48.544;8.918;2023-02-03T19:06:34;98580.03;;;6.22;97.97
50774;BME280;36745;48.544;8.918;2023-02-03T19:09:54;98580.06;;;6.25;98.28
50774;BME280;36745;48.544;8.918;2023-02-03T19:13:14;98592.53;;;6.19;98.38
50774;BME280;36745;48.544;8.918;2023-02-03T19:16:33;98578.50;;;6.24;98.63
50774;BME280;36745;48.544;8.918;2023-02-03T19:19:53;98577.34;;;6.29;98.59
50774;BME280;36745;48.544;8.918;2023-02-03T19:23:13;98569.16;;;6.32;98.20
50774;BME280;36745;48.544;8.918;2023-02-03T19:26:33;98558.19;;;6.29;98.27
50774;BME280;36745;48.544;8.918;2023-02-03T19:29:53;98558.19;;;6.32;98.06
50774;BME280;36745;48.544;8.918;2023-02-03T19:33:13;98561.34;;;6.35;97.35
50774;BME280;36745;48.544;8.918;2023-02-03T19:36:33;98559.72;;;6.26;98.16
50774;BME280;36745;48.544;8.918;2023-02-03T19:39:53;98562.81;;;6.21;98.73
50774;BME280;36745;48.544;8.918;2023-02-03T19:43:13;98555.78;;;6.20;98.90
50774;BME280;36745;48.544;8.918;2023-02-03T19:46:34;98560.56;;;6.30;98.65
50774;BME280;36745;48.544;8.918;2023-02-03T19:49:57;98566.41;;;6.29;98.09
50774;BME280;36745;48.544;8.918;2023-02-03T19:53:17;98572.97;;;6.17;98.70
50774;BME280;36745;48.544;8.918;2023-02-03T19:56:37;98568.28;;;6.21;98.78
50774;BME280;36745;48.544;8.918;2023-02-03T19:59:57;98569.91;;;6.26;98.49
50774;BME280;36745;48.544;8.918;2023-02-03T20:03:17;98569.47;;;6.20;98.83
50774;BME280;36745;48.544;8.918;2023-02-03T20:06:38;98577.69;;;6.20;98.81
50774;BME280;36745;48.544;8.918;2023-02-03T20:09:58;98586.25;;;6.15;98.96